createdAt,value
2022-11-07T00:02:05.925Z,101034.06
2022-11-07T00:04:34.051Z,101032.28
2022-11-07T00:07:02.071Z,101035.00
2022-11-07T00:09:29.662Z,101028.69
2022-11-07T00:11:57.541Z,101027.53
2022-11-07T00:14:25.563Z,101032.47
2022-11-07T00:16:53.620Z,101022.13
2022-11-07T00:19:22.421Z,101034.59
2022-11-07T00:21:50.166Z,101033.72
2022-11-07T00:24:18.595Z,101031.72
2022-11-07T00:26:46.947Z,101048.28
2022-11-07T00:29:20.262Z,101048.38
2022-11-07T00:31:48.700Z,101052.06
2022-11-07T00:34:16.624Z,101044.91
2022-11-07T00:36:44.224Z,101056.31
2022-11-07T00:39:12.154Z,101043.22
2022-11-07T00:41:39.632Z,101047.53
2022-11-07T00:44:07.200Z,101037.03
2022-11-07T00:46:34.777Z,101042.16
2022-11-07T00:49:02.302Z,101030.09
2022-11-07T00:51:29.802Z,101047.75
2022-11-07T00:53:57.543Z,101035.59
2022-11-07T00:56:25.881Z,101038.13
2022-11-07T00:58:57.143Z,101038.13
2022-11-07T01:01:31.406Z,101042.44
2022-11-07T01:04:17.733Z,101036.94
2022-11-07T01:06:46.379Z,101040.22
2022-11-07T01:09:22.042Z,101040.09
2022-11-07T01:11:49.993Z,101035.63
2022-11-07T01:14:20.127Z,101039.91
2022-11-07T01:16:47.690Z,101036.66
2022-11-07T01:19:15.379Z,101051.50
2022-11-07T01:21:43.426Z,101051.47
2022-11-07T01:24:12.701Z,101041.16
2022-11-07T01:26:41.709Z,101040.69
2022-11-07T01:29:09.855Z,101046.75
2022-11-07T01:31:37.425Z,101051.09
2022-11-07T01:34:05.312Z,101051.38
2022-11-07T01:36:33.002Z,101044.22
2022-11-07T01:39:00.575Z,101057.53
2022-11-07T01:41:31.317Z,101057.53
2022-11-07T01:44:02.934Z,101059.38
2022-11-07T01:46:34.238Z,101052.28
2022-11-07T01:49:04.499Z,101060.47
2022-11-07T01:51:37.155Z,101053.91
2022-11-07T01:54:06.332Z,101048.81
2022-11-07T01:56:37.189Z,101059.03
2022-11-07T01:59:06.054Z,101049.91
2022-11-07T02:01:33.887Z,101049.41
2022-11-07T02:04:02.213Z,101045.94
2022-11-07T02:06:55.685Z,101047.94
2022-11-07T02:09:23.220Z,101031.38
2022-11-07T02:11:51.736Z,101049.81
2022-11-07T02:14:19.792Z,101048.19
2022-11-07T02:16:49.798Z,101046.38
2022-11-07T02:19:36.312Z,101051.47
2022-11-07T02:22:40.652Z,101057.53
2022-11-07T02:25:12.510Z,101050.16
2022-11-07T02:27:41.909Z,101050.59
2022-11-07T02:30:16.099Z,101049.66
2022-11-07T02:32:44.355Z,101048.41
2022-11-07T02:35:36.458Z,101056.75
2022-11-07T02:38:27.956Z,101057.53
2022-11-07T02:41:13.575Z,101045.09
2022-11-07T02:43:52.773Z,101051.22
2022-11-07T02:46:22.833Z,101053.69
2022-11-07T02:48:54.606Z,101052.81
2022-11-07T02:51:22.138Z,101054.31
2022-11-07T02:53:49.701Z,101062.03
2022-11-07T02:56:18.097Z,101048.69
2022-11-07T02:58:48.636Z,101060.44
2022-11-07T03:01:18.871Z,101053.13
2022-11-07T03:03:48.960Z,101048.53
2022-11-07T03:06:19.697Z,101056.47
2022-11-07T03:08:47.731Z,101050.81
2022-11-07T03:11:20.939Z,101056.25
2022-11-07T03:13:49.829Z,101054.16
2022-11-07T03:16:18.821Z,101073.72
2022-11-07T03:18:46.421Z,101069.31
2022-11-07T03:21:14.371Z,101058.88
2022-11-07T03:23:41.915Z,101055.47
2022-11-07T03:26:09.488Z,101064.78
2022-11-07T03:28:37.056Z,101061.19
2022-11-07T03:31:05.210Z,101060.97
2022-11-07T03:33:32.768Z,101064.22
2022-11-07T03:36:00.409Z,101069.28
2022-11-07T03:38:28.145Z,101071.66
2022-11-07T03:40:55.693Z,101061.44
2022-11-07T03:43:24.412Z,101074.03
2022-11-07T03:45:51.984Z,101072.09
2022-11-07T03:48:19.454Z,101071.72
2022-11-07T03:50:47.078Z,101082.97
2022-11-07T03:53:16.458Z,101084.88
2022-11-07T03:55:46.889Z,101082.44
2022-11-07T03:58:14.483Z,101087.97
2022-11-07T04:00:42.601Z,101090.47
2022-11-07T04:03:10.284Z,101099.28
2022-11-07T04:05:37.900Z,101097.16
2022-11-07T04:08:05.834Z,101097.06
2022-11-07T04:10:33.624Z,101102.28
2022-11-07T04:13:19.882Z,101107.41
2022-11-07T04:16:06.177Z,101129.00
2022-11-07T04:18:35.978Z,101116.69
2022-11-07T04:21:03.419Z,101117.38
2022-11-07T04:23:31.109Z,101118.78
2022-11-07T04:26:17.506Z,101118.72
2022-11-07T04:28:45.150Z,101110.84
2022-11-07T04:31:12.670Z,101099.97
2022-11-07T04:33:40.211Z,101114.53
2022-11-07T04:36:08.205Z,101113.97
2022-11-07T04:38:35.952Z,101122.78
2022-11-07T04:41:04.745Z,101125.28
2022-11-07T04:43:32.418Z,101120.69
2022-11-07T04:45:59.889Z,101125.03
2022-11-07T04:48:27.426Z,101132.06
2022-11-07T04:50:54.979Z,101130.63
2022-11-07T04:53:22.425Z,101137.59
2022-11-07T04:55:49.904Z,101133.94
2022-11-07T04:58:17.964Z,101133.22
2022-11-07T05:00:45.648Z,101138.53
2022-11-07T05:03:13.628Z,101131.59
2022-11-07T05:05:41.426Z,101130.66
2022-11-07T05:08:09.069Z,101139.03
2022-11-07T05:10:36.784Z,101139.25
2022-11-07T05:13:04.230Z,101135.91
2022-11-07T05:15:31.717Z,101133.50
2022-11-07T05:17:59.201Z,101141.56
2022-11-07T05:20:32.559Z,101121.31
2022-11-07T05:23:13.575Z,101139.75
2022-11-07T05:25:49.736Z,101136.34
2022-11-07T05:28:33.675Z,101136.09
2022-11-07T05:31:06.169Z,101143.38
2022-11-07T05:33:34.342Z,101137.03
2022-11-07T05:36:34.190Z,101138.75
2022-11-07T05:39:01.737Z,101156.78
2022-11-07T05:41:29.294Z,101143.56
2022-11-07T05:43:59.842Z,101149.78
2022-11-07T05:46:27.327Z,101144.44
2022-11-07T05:48:59.739Z,101143.44
2022-11-07T05:51:28.539Z,101149.25
2022-11-07T05:53:56.065Z,101160.53
2022-11-07T05:56:23.646Z,101160.31
2022-11-07T05:58:51.236Z,101152.44
2022-11-07T06:01:18.863Z,101157.78
2022-11-07T06:03:46.441Z,101161.66
2022-11-07T06:06:13.933Z,101166.38
2022-11-07T06:08:41.473Z,101165.41
2022-11-07T06:11:11.600Z,101165.44
2022-11-07T06:13:39.129Z,101161.31
2022-11-07T06:16:06.892Z,101185.34
2022-11-07T06:18:41.419Z,101172.53
2022-11-07T06:21:09.255Z,101176.69
2022-11-07T06:23:36.836Z,101185.44
2022-11-07T06:26:04.391Z,101193.41
2022-11-07T06:28:32.006Z,101189.13
2022-11-07T06:31:00.718Z,101184.44
2022-11-07T06:34:24.264Z,101204.38
2022-11-07T06:51:55.296Z,101217.97
2022-11-07T06:55:25.617Z,101235.78
2022-11-07T07:05:25.210Z,101242.41
2022-11-07T07:08:02.023Z,101251.94
2022-11-07T07:10:37.205Z,101254.44
2022-11-07T07:13:05.114Z,101250.69
2022-11-07T07:15:49.871Z,101254.06
2022-11-07T07:18:20.064Z,101268.63
2022-11-07T07:20:49.295Z,101273.81
2022-11-07T07:23:18.780Z,101270.28
2022-11-07T07:25:47.513Z,101269.69
2022-11-07T07:28:15.219Z,101281.22
2022-11-07T07:30:47.206Z,101292.75
2022-11-07T07:33:18.536Z,101281.31
2022-11-07T07:35:49.087Z,101287.69
2022-11-07T07:38:23.862Z,101287.53
2022-11-07T07:40:53.872Z,101303.53
2022-11-07T07:43:21.367Z,101309.00
2022-11-07T07:46:02.560Z,101310.09
2022-11-07T07:48:31.270Z,101317.28
2022-11-07T07:50:59.697Z,101312.91
2022-11-07T07:53:32.883Z,101308.03
2022-11-07T07:56:02.814Z,101305.66
2022-11-07T07:58:30.287Z,101303.44
2022-11-07T08:00:58.048Z,101308.75
2022-11-07T08:03:32.175Z,101310.03
2022-11-07T08:06:07.709Z,101328.28
2022-11-07T08:08:38.192Z,101331.84
2022-11-07T08:11:09.966Z,101327.06
2022-11-07T08:13:37.439Z,101334.75
2022-11-07T08:16:07.827Z,101345.13
2022-11-07T08:18:40.069Z,101337.28
2022-11-07T08:21:08.168Z,101347.19
2022-11-07T08:23:36.162Z,101332.66
2022-11-07T08:26:04.697Z,101330.88
2022-11-07T08:28:35.441Z,101330.53
2022-11-07T08:31:12.009Z,101338.53
2022-11-07T08:33:40.102Z,101341.66
2022-11-07T08:36:08.150Z,101344.41
2022-11-07T08:38:36.221Z,101346.78
2022-11-07T08:41:05.698Z,101340.00
2022-11-07T08:43:33.289Z,101334.84
2022-11-07T08:46:00.829Z,101341.63
2022-11-07T08:48:28.453Z,101342.63
2022-11-07T08:50:57.873Z,101351.16
2022-11-07T08:53:27.124Z,101354.22
2022-11-07T08:56:04.608Z,101360.28
2022-11-07T08:58:32.947Z,101357.38
2022-11-07T09:01:01.072Z,101358.47
2022-11-07T09:03:45.227Z,101360.91
2022-11-07T09:06:14.388Z,101370.56
2022-11-07T09:08:41.971Z,101371.34
2022-11-07T09:11:09.736Z,101355.09
2022-11-07T09:13:37.385Z,101360.56
2022-11-07T09:16:05.719Z,101369.06
2022-11-07T09:18:33.620Z,101365.53
2022-11-07T09:21:01.217Z,101375.16
2022-11-07T09:23:28.925Z,101373.94
2022-11-07T09:26:00.534Z,101376.22
2022-11-07T09:28:28.808Z,101370.22
2022-11-07T09:30:57.988Z,101380.13
2022-11-07T09:33:26.266Z,101379.97
2022-11-07T09:35:54.146Z,101390.41
2022-11-07T09:38:21.783Z,101385.25
2022-11-07T09:41:08.062Z,101393.78
2022-11-07T09:43:35.675Z,101405.75
2022-11-07T09:46:26.926Z,101402.97
2022-11-07T09:49:00.880Z,101408.13
2022-11-07T09:51:37.810Z,101406.81
2022-11-07T09:54:15.144Z,101419.97
2022-11-07T09:56:43.997Z,101408.88
2022-11-07T09:59:34.030Z,101414.25
2022-11-07T10:02:01.662Z,101407.47
2022-11-07T10:04:29.252Z,101402.69
2022-11-07T10:07:04.106Z,101401.09
2022-11-07T10:09:55.775Z,101401.66
2022-11-07T10:12:47.919Z,101402.84
2022-11-07T10:15:39.532Z,101399.56
2022-11-07T10:18:50.707Z,101397.69
2022-11-07T10:21:39.496Z,101380.75
2022-11-07T10:24:37.779Z,101395.16
2022-11-07T10:27:10.456Z,101389.53
2022-11-07T10:29:52.500Z,101396.94
2022-11-07T10:32:35.865Z,101397.69
2022-11-07T10:35:26.811Z,101391.53
2022-11-07T10:38:00.417Z,101389.41
2022-11-07T10:40:36.186Z,101375.25
2022-11-07T10:43:07.728Z,101380.50
2022-11-07T10:45:37.409Z,101369.88
2022-11-07T10:48:05.791Z,101364.75
2022-11-07T10:50:33.492Z,101374.19
2022-11-07T10:53:05.546Z,101374.81
2022-11-07T10:55:43.821Z,101383.25
2022-11-07T10:58:21.695Z,101376.50
2022-11-07T11:01:09.649Z,101374.28
2022-11-07T11:03:45.355Z,101370.03
2022-11-07T11:06:19.072Z,101376.31
2022-11-07T11:08:48.148Z,101368.97
2022-11-07T11:11:21.396Z,101367.94
2022-11-07T11:13:49.392Z,101366.34
2022-11-07T11:16:28.403Z,101363.22
2022-11-07T11:19:01.179Z,101360.88
2022-11-07T11:21:46.411Z,101353.78
2022-11-07T11:24:23.690Z,101353.06
2022-11-07T11:26:52.548Z,101354.03
2022-11-07T11:29:27.090Z,101353.06
2022-11-07T11:31:57.358Z,101353.34
2022-11-07T11:34:58.609Z,101341.00
2022-11-07T11:37:29.262Z,101339.97
2022-11-07T11:40:09.412Z,101343.66
2022-11-07T11:43:00.717Z,101343.03
2022-11-07T11:45:39.972Z,101328.47
2022-11-07T11:48:22.625Z,101327.50
2022-11-07T11:50:54.300Z,101331.56
2022-11-07T11:53:22.784Z,101333.13
2022-11-07T11:56:25.514Z,101318.72
2022-11-07T11:59:11.572Z,101332.31
2022-11-07T12:01:47.515Z,101329.34
2022-11-07T12:04:30.015Z,101321.56
2022-11-07T12:07:32.773Z,101318.50
2022-11-07T12:10:07.425Z,101306.88
2022-11-07T12:13:09.640Z,101312.28
2022-11-07T12:15:44.203Z,101304.56
2022-11-07T12:18:41.408Z,101312.69
2022-11-07T12:21:27.543Z,101317.25
2022-11-07T12:24:16.452Z,101309.00
2022-11-07T12:27:09.717Z,101293.00
2022-11-07T12:29:55.508Z,101300.28
2022-11-07T12:32:28.746Z,101297.81
2022-11-07T12:35:07.602Z,101289.75
2022-11-07T12:38:19.946Z,101285.59
2022-11-07T12:41:15.007Z,101289.34
2022-11-07T12:43:42.571Z,101286.91
2022-11-07T12:46:30.481Z,101282.97
2022-11-07T12:48:57.960Z,101279.50
2022-11-07T12:52:03.908Z,101274.00
2022-11-07T12:54:49.695Z,101275.09
2022-11-07T12:57:21.759Z,101277.41
2022-11-07T12:59:57.368Z,101276.41
2022-11-07T13:02:37.817Z,101267.66
2022-11-07T13:05:23.461Z,101279.06
2022-11-07T13:08:00.457Z,101275.34
2022-11-07T13:10:35.941Z,101272.22
2022-11-07T13:13:07.285Z,101268.28
2022-11-07T13:16:00.906Z,101264.69
2022-11-07T13:18:27.826Z,101261.06
2022-11-07T13:21:07.200Z,101270.56
2022-11-07T13:23:34.749Z,101273.97
2022-11-07T13:26:25.867Z,101261.69
2022-11-07T13:29:01.239Z,101258.97
2022-11-07T13:31:35.288Z,101260.25
2022-11-07T13:34:25.246Z,101256.94
2022-11-07T13:37:00.436Z,101271.81
2022-11-07T13:39:30.009Z,101266.47
2022-11-07T13:41:59.455Z,101268.91
2022-11-07T13:44:32.416Z,101277.59
2022-11-07T13:47:05.291Z,101271.97
2022-11-07T13:49:44.491Z,101271.25
2022-11-07T13:52:37.672Z,101277.25
2022-11-07T13:55:11.210Z,101272.97
2022-11-07T13:57:42.656Z,101270.66
2022-11-07T14:00:14.955Z,101269.59
2022-11-07T14:02:52.957Z,101271.03
2022-11-07T14:05:36.256Z,101271.50
2022-11-07T14:08:17.730Z,101270.31
2022-11-07T14:10:47.854Z,101270.44
2022-11-07T14:13:26.841Z,101278.41
2022-11-07T14:15:58.797Z,101272.97
2022-11-07T14:18:30.006Z,101275.88
2022-11-07T14:20:59.112Z,101277.09
2022-11-07T14:23:30.093Z,101280.69
2022-11-07T14:26:16.867Z,101273.75
2022-11-07T14:28:44.450Z,101273.22
2022-11-07T14:31:29.660Z,101269.00
2022-11-07T14:34:02.280Z,101277.88
2022-11-07T14:36:31.419Z,101278.78
2022-11-07T14:39:11.435Z,101285.06
2022-11-07T14:41:44.769Z,101280.56
2022-11-07T14:44:18.790Z,101279.72
2022-11-07T14:46:47.696Z,101281.56
2022-11-07T14:49:26.287Z,101279.88
2022-11-07T14:51:55.749Z,101283.66
2022-11-07T14:54:31.421Z,101270.00
2022-11-07T14:57:00.370Z,101263.31
2022-11-07T14:59:33.403Z,101260.91
2022-11-07T15:02:13.556Z,101258.50
2022-11-07T15:04:46.756Z,101257.69
2022-11-07T15:07:35.428Z,101263.91
2022-11-07T15:10:17.370Z,101262.28
2022-11-07T15:12:56.286Z,101256.31
2022-11-07T15:15:32.185Z,101245.03
2022-11-07T15:18:03.084Z,101255.53
2022-11-07T15:20:30.586Z,101268.81
2022-11-07T15:22:59.189Z,101261.81
2022-11-07T15:25:39.066Z,101247.75
2022-11-07T15:28:18.882Z,101263.75
2022-11-07T15:30:47.851Z,101256.00
2022-11-07T15:33:21.670Z,101261.31
2022-11-07T15:35:54.657Z,101252.47
2022-11-07T15:38:27.939Z,101263.94
2022-11-07T15:40:55.802Z,101256.03
2022-11-07T15:43:23.550Z,101253.47
2022-11-07T15:45:53.481Z,101264.94
2022-11-07T15:48:24.135Z,101254.38
2022-11-07T15:50:51.927Z,101249.19
2022-11-07T15:53:27.709Z,101257.09
2022-11-07T15:55:59.027Z,101257.13
2022-11-07T15:58:29.461Z,101258.91
2022-11-07T16:01:01.683Z,101255.41
2022-11-07T16:03:29.559Z,101255.44
2022-11-07T16:06:03.176Z,101258.13
2022-11-07T16:08:33.533Z,101254.66
2022-11-07T16:11:02.428Z,101257.31
2022-11-07T16:13:30.128Z,101262.56
2022-11-07T16:16:00.885Z,101264.38
2022-11-07T16:18:35.081Z,101270.53
2022-11-07T16:21:02.643Z,101274.94
2022-11-07T16:23:30.234Z,101265.25
2022-11-07T16:25:58.494Z,101268.78
2022-11-07T16:28:30.634Z,101269.63
2022-11-07T16:30:59.228Z,101265.19
2022-11-07T16:33:27.679Z,101259.88
2022-11-07T16:35:58.596Z,101267.84
2022-11-07T16:38:31.334Z,101266.94
2022-11-07T16:41:08.864Z,101282.72
2022-11-07T16:43:39.744Z,101264.22
2022-11-07T16:46:17.404Z,101283.53
2022-11-07T16:48:47.045Z,101276.47
2022-11-07T16:51:16.287Z,101272.97
2022-11-07T16:53:44.632Z,101272.97
2022-11-07T16:56:22.327Z,101279.97
2022-11-07T16:58:50.382Z,101282.59
2022-11-07T17:01:18.105Z,101286.91
2022-11-07T17:03:45.801Z,101290.34
2022-11-07T17:06:31.740Z,101296.50
2022-11-07T17:09:06.138Z,101303.53
2022-11-07T17:11:38.409Z,101314.03
2022-11-07T17:14:05.995Z,101303.47
2022-11-07T17:16:36.740Z,101301.75
2022-11-07T17:19:05.573Z,101314.91
2022-11-07T17:21:40.727Z,101315.66
2022-11-07T17:24:08.546Z,101309.38
2022-11-07T17:26:38.962Z,101314.69
2022-11-07T17:29:21.284Z,101314.75
2022-11-07T17:31:48.918Z,101324.47
2022-11-07T17:34:16.496Z,101314.75
2022-11-07T17:36:47.672Z,101327.09
2022-11-07T17:39:18.046Z,101328.78
2022-11-07T17:41:47.737Z,101332.31
2022-11-07T17:44:18.769Z,101334.91
2022-11-07T17:46:48.456Z,101325.22
2022-11-07T17:49:18.792Z,101326.75
2022-11-07T17:51:46.448Z,101336.47
2022-11-07T17:54:15.426Z,101336.34
2022-11-07T17:56:43.275Z,101330.09
2022-11-07T17:59:17.843Z,101344.91
2022-11-07T18:01:45.861Z,101344.91
2022-11-07T18:04:14.008Z,101345.91
2022-11-07T18:06:43.221Z,101357.25
2022-11-07T18:09:14.674Z,101343.91
2022-11-07T18:11:45.815Z,101344.56
2022-11-07T18:14:14.642Z,101349.69
2022-11-07T18:16:42.708Z,101361.91
2022-11-07T18:19:11.148Z,101353.91
2022-11-07T18:21:39.144Z,101353.16
2022-11-07T18:24:07.119Z,101350.47
2022-11-07T18:26:36.927Z,101351.25
2022-11-07T18:29:07.450Z,101355.59
2022-11-07T18:31:35.408Z,101354.75
2022-11-07T18:34:06.630Z,101360.13
2022-11-07T18:36:38.243Z,101353.06
2022-11-07T18:39:08.756Z,101356.13
2022-11-07T18:41:36.251Z,101350.78
2022-11-07T18:44:05.258Z,101349.81
2022-11-07T18:46:33.329Z,101348.84
2022-11-07T18:49:00.883Z,101361.09
2022-11-07T18:51:28.562Z,101350.47
2022-11-07T18:53:56.286Z,101362.75
2022-11-07T18:56:23.752Z,101365.44
2022-11-07T18:58:51.461Z,101354.84
2022-11-07T19:01:26.634Z,101373.09
2022-11-07T19:03:56.022Z,101370.50
2022-11-07T19:06:25.720Z,101371.44
2022-11-07T19:08:53.405Z,101373.09
2022-11-07T19:11:28.803Z,101363.44
2022-11-07T19:13:59.734Z,101372.03
2022-11-07T19:16:32.896Z,101356.00
2022-11-07T19:19:00.402Z,101376.22
2022-11-07T19:21:27.957Z,101377.88
2022-11-07T19:23:55.515Z,101370.84
2022-11-07T19:26:24.834Z,101379.75
2022-11-07T19:28:54.145Z,101366.44
2022-11-07T19:31:21.718Z,101367.88
2022-11-07T19:33:49.276Z,101371.25
2022-11-07T19:36:20.061Z,101377.47
2022-11-07T19:38:48.638Z,101391.50
2022-11-07T19:41:17.809Z,101374.78
2022-11-07T19:43:49.986Z,101374.81
2022-11-07T19:46:20.480Z,101366.38
2022-11-07T19:48:49.116Z,101372.53
2022-11-07T19:51:22.218Z,101385.72
2022-11-07T19:53:58.285Z,101382.09
2022-11-07T19:56:26.903Z,101386.41
2022-11-07T19:58:55.160Z,101379.72
2022-11-07T20:01:26.008Z,101385.28
2022-11-07T20:03:54.945Z,101388.81
2022-11-07T20:06:25.944Z,101390.47
2022-11-07T20:08:53.823Z,101402.63
2022-11-07T20:11:24.044Z,101393.88
2022-11-07T20:13:52.937Z,101397.41
2022-11-07T20:16:21.108Z,101395.44
2022-11-07T20:18:48.816Z,101398.16
2022-11-07T20:21:23.077Z,101403.91
2022-11-07T20:23:53.826Z,101416.09
2022-11-07T20:26:23.262Z,101415.88
2022-11-07T20:28:51.368Z,101418.50
2022-11-07T20:31:21.681Z,101412.31
2022-11-07T20:33:49.580Z,101419.50
2022-11-07T20:36:18.130Z,101411.38
2022-11-07T20:38:45.715Z,101411.19
2022-11-07T20:41:14.486Z,101416.38
2022-11-07T20:43:44.448Z,101416.44
2022-11-07T20:46:15.101Z,101413.78
2022-11-07T20:48:43.397Z,101419.16
2022-11-07T20:51:16.710Z,101410.97
2022-11-07T20:53:49.719Z,101412.63
2022-11-07T20:56:25.094Z,101417.13
2022-11-07T20:58:53.949Z,101413.78
2022-11-07T21:01:25.109Z,101415.66
2022-11-07T21:03:53.119Z,101415.56
2022-11-07T21:06:20.858Z,101406.09
2022-11-07T21:08:50.298Z,101409.53
2022-11-07T21:11:18.118Z,101417.41
2022-11-07T21:13:52.444Z,101427.97
2022-11-07T21:16:22.087Z,101419.09
2022-11-07T21:18:51.103Z,101413.91
2022-11-07T21:21:27.610Z,101420.19
2022-11-07T21:23:57.384Z,101422.00
2022-11-07T21:26:31.771Z,101424.66
2022-11-07T21:29:00.363Z,101426.28
2022-11-07T21:31:31.326Z,101429.69
2022-11-07T21:33:59.442Z,101420.81
2022-11-07T21:36:29.422Z,101411.94
2022-11-07T21:38:58.391Z,101408.53
2022-11-07T21:41:26.583Z,101411.81
2022-11-07T21:43:54.036Z,101421.31
2022-11-07T21:46:27.345Z,101415.03
2022-11-07T21:48:55.907Z,101413.91
2022-11-07T21:51:23.276Z,101420.63
2022-11-07T21:53:51.377Z,101420.53
2022-11-07T21:56:24.926Z,101418.72
2022-11-07T21:58:54.808Z,101425.84
2022-11-07T22:01:22.847Z,101422.47
2022-11-07T22:04:06.133Z,101425.81
2022-11-07T22:06:36.653Z,101424.00
2022-11-07T22:09:06.099Z,101424.78
2022-11-07T22:11:33.746Z,101419.94
2022-11-07T22:14:01.262Z,101426.03
2022-11-07T22:16:29.031Z,101427.88
2022-11-07T22:18:56.453Z,101414.91
2022-11-07T22:21:23.980Z,101422.09
2022-11-07T22:23:51.611Z,101411.44
2022-11-07T22:26:21.719Z,101421.03
2022-11-07T22:28:50.251Z,101414.22
2022-11-07T22:31:27.046Z,101413.13
2022-11-07T22:33:55.131Z,101413.84
2022-11-07T22:36:23.517Z,101401.25
2022-11-07T22:38:51.690Z,101414.19
2022-11-07T22:41:21.865Z,101392.97
2022-11-07T22:43:50.366Z,101405.28
2022-11-07T22:46:20.767Z,101397.72
2022-11-07T22:48:49.508Z,101395.28
2022-11-07T22:51:23.197Z,101388.25
2022-11-07T22:54:02.332Z,101393.22
2022-11-07T22:56:30.975Z,101390.69
2022-11-07T22:58:59.192Z,101388.56
2022-11-07T23:01:29.942Z,101388.78
2022-11-07T23:03:58.760Z,101385.44
2022-11-07T23:06:28.634Z,101382.22
2022-11-07T23:08:57.879Z,101382.56
2022-11-07T23:14:18.710Z,101366.38
2022-11-07T23:16:51.524Z,101371.22
2022-11-07T23:19:21.656Z,101365.09
2022-11-07T23:21:53.524Z,101372.00
2022-11-07T23:24:21.290Z,101359.66
2022-11-07T23:26:49.442Z,101370.25
2022-11-07T23:29:20.043Z,101362.28
2022-11-07T23:31:49.788Z,101373.69
2022-11-07T23:34:19.167Z,101372.59
2022-11-07T23:36:46.626Z,101367.53
2022-11-07T23:39:16.590Z,101364.00
2022-11-07T23:41:44.566Z,101372.75
2022-11-07T23:44:12.801Z,101380.00
2022-11-07T23:46:59.439Z,101376.06
2022-11-07T23:49:55.622Z,101370.88
2022-11-07T23:52:23.114Z,101373.53
2022-11-07T23:55:08.800Z,101380.03
2022-11-07T23:57:57.247Z,101370.81
